Time;durP1;ratioP1;P1;durP2;ratioP2;P2;SDS_P1;SDS_P2;PMS_P1;PMS_P2;Temp;Humidity;BMP_temperature;BMP_pressure;BME280_temperature;BME280_humidity;BME280_pressure;Samples;Min_cycle;Max_cycle;Signal;HPM_P1;HPM_P2
2022/07/09 00:01:50;;;;;;;4.88;4.38;;;;;;;19.09;72.45;94572.78;4172786;28;20048;-56
2022/07/09 00:03:52;;;;;;;5.10;4.25;;;;;;;18.97;73.77;94572.66;4160876;28;20099;-57
2022/07/09 00:05:53;;;;;;;8.50;4.93;;;;;;;18.74;75.27;94568.69;4169557;28;20049;-57
2022/07/09 00:07:55;;;;;;;5.18;4.40;;;;;;;18.61;76.10;94580.19;4168177;28;20106;-57
2022/07/09 00:09:56;;;;;;;5.07;4.50;;;;;;;18.54;76.84;94576.75;4175620;28;20202;-56
2022/07/09 00:11:58;;;;;;;6.03;5.18;;;;;;;18.44;76.97;94587.00;4162554;28;20049;-58
2022/07/09 00:14:00;;;;;;;6.65;5.40;;;;;;;18.27;78.02;94588.50;4159255;28;20144;-58
2022/07/09 00:16:02;;;;;;;6.20;5.60;;;;;;;18.25;78.35;94586.03;4165195;28;20045;-57
2022/07/09 00:18:04;;;;;;;5.72;5.13;;;;;;;18.03;78.85;94574.09;4174204;28;20049;-57
2022/07/09 00:20:06;;;;;;;5.97;4.90;;;;;;;17.80;79.57;94576.13;4175966;28;20045;-59
2022/07/09 00:22:08;;;;;;;7.30;5.32;;;;;;;17.75;80.10;94567.19;4174558;28;20076;-56
2022/07/09 00:24:10;;;;;;;7.70;5.30;;;;;;;17.70;80.35;94567.81;4162347;28;20110;-57
2022/07/09 00:26:12;;;;;;;6.97;5.13;;;;;;;17.22;81.90;94573.31;4169305;28;20401;-58
2022/07/09 00:28:14;;;;;;;6.10;4.68;;;;;;;17.19;82.26;94568.44;4166061;28;20079;-57
2022/07/09 00:30:15;;;;;;;5.50;4.65;;;;;;;17.17;82.63;94568.63;4172905;28;20080;-55
2022/07/09 00:32:18;;;;;;;6.15;4.60;;;;;;;16.93;83.54;94556.00;4158740;28;20421;-54
2022/07/09 00:34:19;;;;;;;4.88;4.43;;;;;;;16.77;84.35;94557.94;4160903;28;20118;-56
2022/07/09 00:36:21;;;;;;;7.00;5.00;;;;;;;17.03;84.64;94563.53;4169459;28;20115;-54
2022/07/09 00:38:23;;;;;;;4.95;4.38;;;;;;;17.29;83.62;94557.44;4167546;28;20053;-56
2022/07/09 00:40:24;;;;;;;5.40;4.35;;;;;;;17.57;82.50;94558.03;4167459;28;20049;-58
2022/07/09 00:42:26;;;;;;;6.07;4.20;;;;;;;17.78;80.46;94553.50;4174420;28;20201;-56
2022/07/09 00:44:28;;;;;;;4.55;3.88;;;;;;;17.96;79.48;94559.00;4174745;28;20119;-61
2022/07/09 00:46:29;;;;;;;4.00;3.60;;;;;;;18.11;78.70;94558.78;4174976;28;20458;-57
2022/07/09 00:48:31;;;;;;;3.97;3.58;;;;;;;18.25;77.94;94559.53;4165740;28;20049;-57
2022/07/09 00:50:34;;;;;;;6.30;3.25;;;;;;;18.35;77.00;94553.78;4172373;28;20067;-56
2022/07/09 00:52:36;;;;;;;4.00;3.25;;;;;;;18.39;76.19;94553.16;4159223;28;20045;-57
2022/07/09 00:54:38;;;;;;;4.40;3.00;;;;;;;18.46;76.18;94549.66;4158519;28;20057;-56
2022/07/09 00:56:40;;;;;;;3.90;3.10;;;;;;;18.51;75.84;94552.47;4166478;28;20539;-55
2022/07/09 00:58:43;;;;;;;5.22;3.10;;;;;;;18.52;75.18;94544.31;4156758;28;20045;-59
2022/07/09 01:00:45;;;;;;;4.55;3.03;;;;;;;18.53;75.02;94534.50;4165474;28;20052;-59
2022/07/09 01:02:49;;;;;;;4.90;3.28;;;;;;;18.50;74.87;94540.22;4174080;28;20065;-57
2022/07/09 01:04:51;;;;;;;5.20;3.22;;;;;;;18.39;74.93;94534.59;4163330;28;20042;-57
2022/07/09 01:06:52;;;;;;;5.45;3.33;;;;;;;18.41;75.50;94537.00;4173014;28;20049;-57
2022/07/09 01:08:54;;;;;;;3.65;3.00;;;;;;;18.49;75.53;94536.78;4170959;28;20041;-58
2022/07/09 01:10:56;;;;;;;3.75;3.17;;;;;;;18.57;75.11;94533.06;4164983;28;20048;-58
2022/07/09 01:12:59;;;;;;;3.78;2.85;;;;;;;18.61;74.84;94528.97;4166155;28;20076;-58
2022/07/09 01:15:00;;;;;;;3.28;2.97;;;;;;;18.61;74.69;94537.72;4168995;28;20375;-57
2022/07/09 01:17:04;;;;;;;3.72;3.03;;;;;;;18.60;74.77;94538.75;4174017;28;20052;-57
2022/07/09 01:19:08;;;;;;;5.15;2.95;;;;;;;18.62;74.61;94536.69;4157825;28;20108;-57
2022/07/09 01:21:10;;;;;;;3.72;3.00;;;;;;;18.63;74.59;94537.53;4164815;28;20059;-56
2022/07/09 01:23:11;;;;;;;4.10;2.78;;;;;;;18.66;74.37;94533.63;4168201;28;20418;-57
2022/07/09 01:25:16;;;;;;;4.10;2.90;;;;;;;18.69;74.07;94523.41;4161858;28;20133;-58
2022/07/09 01:27:18;;;;;;;3.17;2.88;;;;;;;18.72;73.92;94524.81;4175431;28;20475;-55
2022/07/09 01:29:20;;;;;;;4.05;3.03;;;;;;;18.76;74.23;94526.03;4164189;28;20416;-56
2022/07/09 01:31:44;;;;;;;3.78;2.95;;;;;;;18.79;73.91;94533.56;4166945;28;20533;-56
2022/07/09 01:33:46;;;;;;;2.90;2.35;;;;;;;18.79;73.69;94518.47;4163647;28;20115;-55
2022/07/09 01:35:47;;;;;;;4.90;3.08;;;;;;;18.78;73.43;94526.66;4161430;28;20064;-56
2022/07/09 01:37:50;;;;;;;3.83;3.08;;;;;;;18.79;73.42;94512.34;4160208;28;20128;-56
2022/07/09 01:39:51;;;;;;;3.40;2.58;;;;;;;18.78;73.53;94521.34;4167105;28;20190;-57
2022/07/09 01:41:53;;;;;;;3.40;2.72;;;;;;;18.81;73.48;94521.72;4178495;28;20056;-57
2022/07/09 01:43:55;;;;;;;4.07;3.25;;;;;;;18.81;73.54;94519.06;4177477;28;20523;-55
2022/07/09 01:45:57;;;;;;;3.10;2.80;;;;;;;18.85;73.24;94521.31;4163218;28;20277;-56
2022/07/09 01:47:59;;;;;;;4.10;2.90;;;;;;;18.86;73.37;94520.25;4162453;28;20049;-56
2022/07/09 01:50:01;;;;;;;4.47;2.80;;;;;;;18.89;73.05;94514.53;4174846;28;20057;-57
2022/07/09 01:52:04;;;;;;;2.80;2.50;;;;;;;18.86;72.71;94518.41;4177623;28;20591;-56
2022/07/09 01:54:05;;;;;;;11.32;3.15;;;;;;;18.83;72.80;94517.00;4176246;28;20556;-56
2022/07/09 01:56:08;;;;;;;3.47;2.60;;;;;;;18.82;72.98;94520.69;4175998;28;20068;-58
2022/07/09 01:58:10;;;;;;;3.47;2.85;;;;;;;18.80;73.05;94517.44;4167371;28;20045;-58
2022/07/09 02:00:12;;;;;;;3.97;2.40;;;;;;;18.80;72.84;94520.09;4162928;28;20081;-58
2022/07/09 02:02:14;;;;;;;4.45;2.60;;;;;;;18.78;72.83;94516.03;4173810;28;20049;-58
2022/07/09 02:04:16;;;;;;;3.58;2.55;;;;;;;18.80;72.56;94514.78;4167029;28;20045;-57
2022/07/09 02:06:18;;;;;;;4.65;2.78;;;;;;;18.74;72.57;94515.63;4174746;28;20148;-56
2022/07/09 02:08:19;;;;;;;3.92;2.78;;;;;;;18.77;72.66;94517.03;4171599;28;20386;-57
2022/07/09 02:10:21;;;;;;;3.45;2.70;;;;;;;18.85;72.49;94516.81;4174744;28;20048;-58
2022/07/09 02:12:23;;;;;;;3.67;2.67;;;;;;;18.79;72.01;94523.75;4165898;28;20057;-59
2022/07/09 02:14:25;;;;;;;2.92;2.42;;;;;;;18.83;71.77;94524.97;4165945;28;20413;-60
2022/07/09 02:16:26;;;;;;;2.88;2.58;;;;;;;18.85;72.00;94523.97;4163568;28;20119;-56
2022/07/09 02:18:29;;;;;;;3.15;2.80;;;;;;;18.87;71.98;94530.66;4169103;28;20128;-57
2022/07/09 02:20:31;;;;;;;2.85;2.38;;;;;;;18.83;71.43;94522.31;4165116;28;20053;-57
2022/07/09 02:22:32;;;;;;;4.57;2.30;;;;;;;18.88;71.43;94521.66;4159955;28;20509;-56
2022/07/09 02:24:34;;;;;;;4.30;2.80;;;;;;;18.91;71.48;94526.56;4173260;28;20299;-56
2022/07/09 02:26:36;;;;;;;3.47;2.33;;;;;;;18.94;71.12;94527.97;4167313;28;20052;-56
2022/07/09 02:28:38;;;;;;;3.00;2.42;;;;;;;18.97;71.34;94530.19;4168403;28;20069;-56
2022/07/09 02:30:39;;;;;;;3.08;2.53;;;;;;;18.98;70.91;94527.31;4160170;28;20049;-57
2022/07/09 02:32:41;;;;;;;3.45;2.50;;;;;;;18.99;70.80;94528.13;4159209;28;20061;-56
2022/07/09 02:34:43;;;;;;;2.95;2.63;;;;;;;19.00;70.32;94529.78;4173631;28;20468;-57
2022/07/09 02:36:44;;;;;;;3.08;2.72;;;;;;;18.94;70.24;94530.63;4166208;28;20067;-56
2022/07/09 02:38:46;;;;;;;2.75;2.45;;;;;;;18.94;70.98;94534.09;4169063;28;20053;-56
2022/07/09 02:40:48;;;;;;;3.53;2.40;;;;;;;18.97;70.76;94535.50;4169978;28;20061;-58
2022/07/09 02:42:50;;;;;;;2.83;2.30;;;;;;;18.99;71.27;94533.44;4176862;28;20049;-58
2022/07/09 02:44:51;;;;;;;3.42;2.30;;;;;;;19.02;70.93;94538.34;4161287;28;20107;-58
2022/07/09 02:46:53;;;;;;;3.05;2.75;;;;;;;19.05;70.65;94537.09;4160819;28;20446;-58
2022/07/09 02:48:55;;;;;;;3.35;2.60;;;;;;;19.03;70.25;94539.94;4169215;28;20053;-57
2022/07/09 02:50:57;;;;;;;2.70;2.45;;;;;;;19.05;70.37;94539.75;4176751;28;20045;-59
2022/07/09 02:52:58;;;;;;;3.00;2.67;;;;;;;19.07;70.49;94538.50;4175882;28;20064;-57
2022/07/09 02:55:00;;;;;;;2.60;2.40;;;;;;;19.09;70.78;94546.25;4177447;28;20404;-57
2022/07/09 02:57:02;;;;;;;3.03;2.72;;;;;;;18.98;69.84;94537.13;4173343;28;20072;-57
2022/07/09 02:59:03;;;;;;;3.50;2.55;;;;;;;18.95;70.45;94532.25;4169992;28;20049;-56
2022/07/09 03:01:05;;;;;;;4.28;2.58;;;;;;;18.90;70.26;94546.16;4169938;28;20049;-56
2022/07/09 03:03:08;;;;;;;2.83;2.53;;;;;;;18.88;70.34;94545.56;4163934;28;20053;-56
2022/07/09 03:05:10;;;;;;;4.70;3.10;;;;;;;18.78;70.93;94550.53;4160720;28;20099;-56
2022/07/09 03:07:13;;;;;;;2.95;2.40;;;;;;;18.71;71.51;94553.16;4176610;28;20053;-56
2022/07/09 03:09:15;;;;;;;5.20;3.00;;;;;;;18.71;71.67;94557.66;4174971;28;20045;-57
2022/07/09 03:11:17;;;;;;;3.55;2.78;;;;;;;18.59;71.81;94557.53;4169332;28;20521;-57
2022/07/09 03:13:19;;;;;;;3.70;2.70;;;;;;;18.61;72.08;94555.50;4171520;28;20076;-57
2022/07/09 03:15:20;;;;;;;5.07;2.47;;;;;;;18.60;71.56;94551.19;4161906;28;20049;-57
2022/07/09 03:17:22;;;;;;;5.07;3.00;;;;;;;18.64;71.90;94555.06;4159194;28;20502;-59
2022/07/09 03:19:24;;;;;;;2.75;2.42;;;;;;;18.66;70.94;94546.91;4162008;28;20068;-56
2022/07/09 03:21:26;;;;;;;3.40;2.58;;;;;;;18.70;71.18;94551.56;4169130;28;20505;-56
2022/07/09 03:23:27;;;;;;;3.05;2.67;;;;;;;18.74;71.11;94549.31;4166931;28;20057;-57
2022/07/09 03:25:29;;;;;;;3.10;2.50;;;;;;;18.80;70.71;94548.50;4161241;28;20429;-57
2022/07/09 03:27:31;;;;;;;2.72;2.33;;;;;;;18.83;70.63;94548.84;4158026;28;20600;-56
2022/07/09 03:29:33;;;;;;;4.57;2.97;;;;;;;18.92;70.76;94545.94;4163731;28;20313;-55
2022/07/09 03:31:35;;;;;;;6.07;2.63;;;;;;;18.95;70.21;94556.97;4169553;28;20052;-55
2022/07/09 03:33:37;;;;;;;3.30;2.70;;;;;;;18.97;70.72;94538.16;4164436;28;20053;-54
2022/07/09 03:35:39;;;;;;;3.00;2.40;;;;;;;19.03;70.34;94545.25;4161385;28;20053;-55
2022/07/09 03:37:41;;;;;;;3.50;2.40;;;;;;;19.05;70.05;94545.84;4162311;28;20057;-55
2022/07/09 03:39:42;;;;;;;3.08;2.70;;;;;;;19.05;70.15;94547.69;4163038;28;20051;-55
2022/07/09 03:41:44;;;;;;;4.15;2.60;;;;;;;19.07;70.19;94550.97;4175795;28;20053;-56
2022/07/09 03:43:46;;;;;;;3.58;2.63;;;;;;;19.08;70.04;94540.13;4165758;28;20057;-56
2022/07/09 03:45:47;;;;;;;3.33;2.53;;;;;;;19.08;69.97;94548.09;4158553;28;20413;-56
2022/07/09 03:47:50;;;;;;;2.83;2.38;;;;;;;19.07;69.93;94546.44;4171041;28;20083;-56
2022/07/09 03:49:51;;;;;;;5.20;2.50;;;;;;;19.04;69.95;94541.59;4172425;28;20558;-55
2022/07/09 03:51:53;;;;;;;4.18;3.00;;;;;;;19.05;70.00;94545.84;4160172;28;20041;-57
2022/07/09 03:54:13;;;;;;;3.92;2.83;;;;;;;19.01;70.09;94547.31;4169938;28;20492;-55
2022/07/09 03:56:15;;;;;;;3.30;2.75;;;;;;;19.00;70.17;94545.69;4176446;28;20052;-56
2022/07/09 03:58:17;;;;;;;6.35;3.08;;;;;;;19.01;70.37;94557.94;4159865;28;20060;-57
2022/07/09 04:00:19;;;;;;;3.03;2.70;;;;;;;19.03;70.26;94548.72;4159132;28;20470;-57
2022/07/09 04:02:20;;;;;;;3.10;2.75;;;;;;;19.03;70.46;94553.22;4164461;28;20060;-55
2022/07/09 04:04:22;;;;;;;4.45;2.78;;;;;;;19.02;70.22;94548.94;4168873;28;20070;-56
2022/07/09 04:06:24;;;;;;;3.97;2.90;;;;;;;19.01;70.15;94547.31;4159849;28;20137;-56
2022/07/09 04:08:26;;;;;;;6.13;2.53;;;;;;;18.96;70.32;94557.78;4163453;28;20433;-57
2022/07/09 04:10:28;;;;;;;6.45;2.85;;;;;;;18.96;70.47;94555.13;4160531;28;20050;-59
2022/07/09 04:12:29;;;;;;;4.13;3.05;;;;;;;18.98;70.66;94550.41;4176041;28;20532;-57
2022/07/09 04:14:31;;;;;;;5.00;2.97;;;;;;;19.02;70.59;94551.59;4167000;28;20050;-56
2022/07/09 04:16:33;;;;;;;5.43;3.05;;;;;;;19.02;70.17;94562.22;4174609;28;20067;-56
2022/07/09 04:18:35;;;;;;;3.75;2.50;;;;;;;19.02;70.56;94560.38;4174936;28;20060;-57
2022/07/09 04:20:38;;;;;;;4.90;2.90;;;;;;;18.94;70.50;94563.28;4161690;28;20050;-58
2022/07/09 04:22:39;;;;;;;3.90;2.78;;;;;;;18.89;70.73;94564.97;4174927;28;20456;-58
2022/07/09 04:24:41;;;;;;;5.80;3.08;;;;;;;18.88;70.72;94568.63;4168524;28;20063;-57
2022/07/09 04:26:43;;;;;;;8.85;3.00;;;;;;;18.88;71.04;94571.28;4168940;28;20061;-56
2022/07/09 04:28:45;;;;;;;3.35;2.80;;;;;;;18.91;71.02;94570.88;4162254;28;20494;-55
2022/07/09 04:30:47;;;;;;;4.25;2.97;;;;;;;18.94;70.80;94575.75;4160198;28;20401;-56
2022/07/09 04:32:49;;;;;;;5.10;3.20;;;;;;;18.85;70.68;94572.53;4174759;28;20384;-51
2022/07/09 04:34:51;;;;;;;5.38;3.03;;;;;;;18.88;71.28;94565.97;4168938;28;20191;-53
2022/07/09 04:36:52;;;;;;;7.70;3.30;;;;;;;18.88;71.07;94573.94;4168598;28;20065;-50
2022/07/09 04:38:55;;;;;;;3.97;3.20;;;;;;;18.85;70.93;94574.38;4163426;28;20064;-47
2022/07/09 04:40:58;;;;;;;3.28;2.67;;;;;;;18.82;71.10;94570.28;4173760;28;20057;-50
2022/07/09 04:42:59;;;;;;;3.58;3.10;;;;;;;18.87;71.44;94567.03;4175650;28;20053;-53
2022/07/09 04:45:01;;;;;;;4.65;3.35;;;;;;;18.83;71.54;94566.63;4175458;28;20049;-50
2022/07/09 04:47:03;;;;;;;5.07;3.30;;;;;;;18.79;71.62;94565.41;4175976;28;20489;-51
2022/07/09 04:49:05;;;;;;;4.05;3.13;;;;;;;18.77;71.88;94557.63;4174126;28;20116;-53
2022/07/09 04:51:07;;;;;;;3.30;2.83;;;;;;;18.80;71.88;94556.44;4162559;28;20049;-51
2022/07/09 04:53:08;;;;;;;4.32;3.08;;;;;;;18.87;72.16;94556.41;4173919;28;20124;-51
2022/07/09 04:55:11;;;;;;;3.08;2.78;;;;;;;18.89;71.64;94557.00;4175356;28;20194;-52
2022/07/09 04:57:13;;;;;;;5.55;3.72;;;;;;;18.93;71.45;94561.66;4173673;28;20049;-48
2022/07/09 04:59:14;;;;;;;3.60;2.75;;;;;;;18.89;71.53;94565.78;4170256;28;20640;-49
2022/07/09 05:01:16;;;;;;;6.68;3.35;;;;;;;18.93;71.49;94564.31;4162751;28;20049;-51
2022/07/09 05:03:18;;;;;;;4.22;3.60;;;;;;;19.00;71.78;94564.28;4161141;28;20057;-52
2022/07/09 05:05:25;;;;;;;5.95;2.92;;;;;;;19.05;71.41;94566.28;4162074;28;20053;-53
2022/07/09 05:07:27;;;;;;;5.70;3.10;;;;;;;19.00;71.41;94574.91;4167341;28;20485;-51
2022/07/09 05:09:29;;;;;;;4.13;3.00;;;;;;;18.94;71.18;94567.78;4170237;28;20049;-49
2022/07/09 05:11:30;;;;;;;2.95;2.65;;;;;;;18.93;71.60;94568.78;4161932;28;20053;-55
2022/07/09 05:13:32;;;;;;;3.65;2.80;;;;;;;18.92;71.28;94575.16;4161955;28;20573;-56
2022/07/09 05:15:34;;;;;;;3.28;2.97;;;;;;;18.97;71.03;94576.16;4177780;28;20480;-57
2022/07/09 05:17:37;;;;;;;3.88;3.03;;;;;;;19.01;71.16;94580.00;4177166;28;20409;-54
2022/07/09 05:19:38;;;;;;;3.30;3.00;;;;;;;19.02;71.03;94572.84;4170729;28;20457;-57
2022/07/09 05:21:41;;;;;;;3.45;2.80;;;;;;;19.10;71.05;94577.91;4171801;28;20049;-56
2022/07/09 05:23:42;;;;;;;3.45;2.80;;;;;;;19.11;70.71;94579.50;4165165;28;20061;-58
2022/07/09 05:25:44;;;;;;;3.47;2.78;;;;;;;19.10;71.00;94577.91;4176916;28;20045;-58
2022/07/09 05:27:47;;;;;;;3.00;2.50;;;;;;;19.07;70.13;94582.81;4173292;28;20057;-56
2022/07/09 05:29:48;;;;;;;5.40;2.33;;;;;;;18.98;70.78;94587.56;4161442;28;20125;-56
2022/07/09 05:31:50;;;;;;;3.00;2.60;;;;;;;19.01;70.25;94593.28;4177203;28;20289;-56
2022/07/09 05:33:52;;;;;;;3.78;2.70;;;;;;;19.02;70.75;94592.22;4177199;28;20136;-56
2022/07/09 05:35:53;;;;;;;2.40;2.10;;;;;;;19.00;70.37;94593.47;4161927;28;20057;-57
2022/07/09 05:37:55;;;;;;;3.03;2.70;;;;;;;18.98;70.49;94596.34;4166066;28;20195;-56
2022/07/09 05:39:57;;;;;;;3.00;2.30;;;;;;;18.93;70.50;94588.22;4177988;28;20128;-55
2022/07/09 05:41:59;;;;;;;4.20;2.15;;;;;;;18.97;70.75;94591.25;4178121;28;20087;-57
2022/07/09 05:44:04;;;;;;;2.58;2.15;;;;;;;18.99;70.74;94597.16;4164941;28;20053;-56
2022/07/09 05:46:05;;;;;;;4.65;2.45;;;;;;;19.02;70.80;94594.09;4161413;28;20476;-56
2022/07/09 05:48:07;;;;;;;3.05;2.70;;;;;;;19.03;70.81;94590.38;4164613;28;20404;-55
2022/07/09 05:50:09;;;;;;;3.28;2.80;;;;;;;19.11;70.91;94597.28;4172052;28;20061;-56
2022/07/09 05:52:11;;;;;;;3.65;2.65;;;;;;;19.10;70.20;94599.16;4169875;28;20120;-58
2022/07/09 05:54:13;;;;;;;5.53;2.55;;;;;;;19.16;70.43;94592.94;4177040;28;20061;-56
2022/07/09 05:56:14;;;;;;;2.72;2.38;;;;;;;19.20;70.33;94599.47;4177900;28;20049;-56
2022/07/09 05:58:16;;;;;;;2.97;2.67;;;;;;;19.26;70.65;94602.31;4164371;28;20057;-56
2022/07/09 06:00:18;;;;;;;4.20;2.38;;;;;;;19.31;70.09;94595.28;4163559;28;20458;-60
2022/07/09 06:02:20;;;;;;;7.18;2.53;;;;;;;19.33;69.92;94593.25;4172733;28;20049;-57
2022/07/09 06:04:22;;;;;;;3.72;2.85;;;;;;;19.31;69.78;94595.28;4168169;28;20045;-58
2022/07/09 06:06:24;;;;;;;3.10;2.60;;;;;;;19.32;70.25;94591.63;4167338;28;20195;-55
2022/07/09 06:08:25;;;;;;;3.08;2.78;;;;;;;19.33;70.07;94593.25;4160567;28;20065;-55
2022/07/09 06:10:27;;;;;;;3.47;2.50;;;;;;;19.40;70.04;94598.50;4174432;28;20064;-57
2022/07/09 06:12:29;;;;;;;3.25;2.25;;;;;;;19.41;69.88;94605.47;4162697;28;20198;-56
2022/07/09 06:14:31;;;;;;;4.82;2.90;;;;;;;19.40;69.73;94596.69;4169330;28;20103;-57
2022/07/09 06:16:32;;;;;;;4.50;2.50;;;;;;;19.35;69.89;94599.16;4177155;28;20115;-57
2022/07/09 06:18:34;;;;;;;3.30;2.13;;;;;;;19.33;69.94;94603.06;4163249;28;20111;-57
2022/07/09 06:20:37;;;;;;;5.93;2.70;;;;;;;19.35;70.01;94601.81;4175986;28;20049;-56
2022/07/09 06:22:40;;;;;;;4.68;2.50;;;;;;;19.32;69.88;94610.22;4177178;28;20106;-56
2022/07/09 06:24:42;;;;;;;3.40;2.55;;;;;;;19.30;69.56;94608.81;4177489;28;20053;-54
2022/07/09 06:26:46;;;;;;;2.97;2.50;;;;;;;19.14;70.01;94610.94;4177059;28;20534;-55
2022/07/09 06:28:49;;;;;;;3.35;2.50;;;;;;;19.10;70.75;94611.59;4177231;28;20049;-56
2022/07/09 06:30:51;;;;;;;6.47;3.65;;;;;;;18.96;70.57;94611.66;4169138;28;20498;-57
2022/07/09 06:32:52;;;;;;;5.97;4.18;;;;;;;18.93;71.17;94613.91;4163964;28;20434;-53
2022/07/09 06:34:54;;;;;;;6.13;3.65;;;;;;;18.91;71.40;94616.81;4170023;28;20058;-56
2022/07/09 06:36:56;;;;;;;6.80;3.13;;;;;;;18.92;71.26;94618.41;4161147;28;20477;-55
2022/07/09 06:41:18;;;;;;;5.88;3.15;;;;;;;18.99;71.45;94611.25;4173148;28;20057;-54
2022/07/09 06:43:20;;;;;;;4.70;3.50;;;;;;;18.91;70.90;94614.16;4161011;28;20132;-56
2022/07/09 06:45:22;;;;;;;6.60;3.38;;;;;;;18.92;71.00;94613.13;4161001;28;20269;-55
2022/07/09 06:47:23;;;;;;;3.38;3.08;;;;;;;18.93;71.04;94614.75;4160374;28;20127;-56
2022/07/09 06:49:25;;;;;;;4.43;3.42;;;;;;;18.94;71.45;94618.22;4172615;28;20485;-56
2022/07/09 06:51:27;;;;;;;7.30;5.70;;;;;;;18.88;71.44;94619.88;4174058;28;20056;-57
2022/07/09 06:53:28;;;;;;;6.32;5.00;;;;;;;18.62;72.25;94618.13;4164936;28;20064;-56
2022/07/09 06:55:31;;;;;;;5.78;5.03;;;;;;;18.64;72.94;94621.38;4169833;28;20119;-55
2022/07/09 06:57:32;;;;;;;6.15;4.18;;;;;;;18.67;72.54;94623.63;4168729;28;20049;-55
2022/07/09 06:59:34;;;;;;;4.85;3.72;;;;;;;18.70;72.73;94620.56;4175962;28;20481;-57
2022/07/09 07:01:36;;;;;;;5.57;3.65;;;;;;;18.49;72.93;94623.50;4176245;28;20126;-58
2022/07/09 07:03:37;;;;;;;4.32;3.30;;;;;;;18.20;74.14;94610.53;4159092;28;20049;-57
2022/07/09 07:05:39;;;;;;;5.53;3.35;;;;;;;17.78;75.56;94619.75;4164685;28;20049;-55
2022/07/09 07:07:41;;;;;;;4.20;3.80;;;;;;;17.71;77.43;94616.28;4169229;28;20049;-56
2022/07/09 07:09:42;;;;;;;7.43;4.10;;;;;;;17.93;77.20;94617.72;4169979;28;20163;-58
2022/07/09 07:11:45;;;;;;;5.70;4.47;;;;;;;17.90;76.50;94615.50;4176290;28;20052;-58
2022/07/09 07:13:47;;;;;;;6.07;4.53;;;;;;;17.81;76.71;94627.31;4161140;28;20061;-57
2022/07/09 07:15:49;;;;;;;4.90;4.32;;;;;;;17.98;76.80;94623.22;4172094;28;20136;-57
2022/07/09 07:17:50;;;;;;;4.38;3.80;;;;;;;18.09;76.43;94618.28;4165157;28;20064;-58
2022/07/09 07:19:58;;;;;;;5.03;4.20;;;;;;;18.11;75.48;94619.75;4176367;28;20052;-54
2022/07/09 07:22:00;;;;;;;26.77;10.35;;;;;;;18.09;76.20;94616.47;4175997;28;20390;-55
2022/07/09 07:24:03;;;;;;;9.40;5.00;;;;;;;18.32;76.46;94623.13;4172430;28;20045;-54
2022/07/09 07:26:04;;;;;;;4.82;4.30;;;;;;;18.52;75.11;94623.06;4164682;28;20049;-54
2022/07/09 07:28:06;;;;;;;5.25;3.85;;;;;;;18.65;74.46;94625.69;4175450;28;20113;-55
2022/07/09 07:30:08;;;;;;;6.45;4.55;;;;;;;18.76;74.12;94616.25;4174838;28;20107;-55
2022/07/09 07:32:10;;;;;;;6.70;4.90;;;;;;;18.88;74.53;94627.84;4172269;28;20087;-55
2022/07/09 07:34:12;;;;;;;6.47;4.88;;;;;;;19.11;74.12;94619.34;4172863;28;20505;-55
2022/07/09 07:36:17;;;;;;;6.93;5.60;;;;;;;19.32;72.83;94626.16;4159750;28;20087;-55
2022/07/09 07:38:19;;;;;;;5.28;4.32;;;;;;;19.19;72.76;94621.75;4159583;28;20050;-56
2022/07/09 07:40:21;;;;;;;6.25;4.53;;;;;;;19.34;72.25;94620.63;4169828;28;20101;-56
2022/07/09 07:42:23;;;;;;;9.85;5.90;;;;;;;19.40;72.50;94623.25;4176617;28;20056;-56
2022/07/09 07:44:24;;;;;;;7.50;4.43;;;;;;;19.55;72.20;94616.78;4173817;28;20128;-57
2022/07/09 07:46:26;;;;;;;5.63;4.65;;;;;;;19.75;71.75;94617.47;4158695;28;20054;-57
2022/07/09 07:48:28;;;;;;;4.50;3.83;;;;;;;19.89;70.56;94614.69;4165358;28;20097;-57
2022/07/09 07:50:30;;;;;;;6.68;4.32;;;;;;;19.82;70.22;94618.22;4175924;28;20485;-56
2022/07/09 07:52:32;;;;;;;7.47;4.95;;;;;;;19.39;71.17;94626.09;4164705;28;20057;-55
2022/07/09 07:54:33;;;;;;;4.85;4.10;;;;;;;19.15;72.63;94622.41;4172578;28;20053;-56
2022/07/09 07:56:38;;;;;;;7.68;5.55;;;;;;;19.20;73.00;94626.00;4159395;28;20143;-56
2022/07/09 07:58:40;;;;;;;7.40;6.60;;;;;;;19.02;72.89;94623.28;4163113;28;20051;-56
2022/07/09 08:00:41;;;;;;;5.40;4.75;;;;;;;19.15;72.29;94625.84;4169716;28;20055;-55
2022/07/09 08:02:43;;;;;;;6.25;4.40;;;;;;;19.28;71.26;94618.84;4166579;28;20408;-55
2022/07/09 08:04:45;;;;;;;12.73;11.20;;;;;;;19.27;71.39;94623.31;4175326;28;20104;-55
2022/07/09 08:06:47;;;;;;;14.32;12.82;;;;;;;19.24;71.75;94619.25;4172240;28;20060;-58
2022/07/09 08:08:49;;;;;;;12.75;9.05;;;;;;;19.27;71.60;94618.00;4162024;28;20636;-59
2022/07/09 08:10:50;;;;;;;13.45;11.55;;;;;;;18.93;72.49;94628.03;4170691;28;20466;-55
2022/07/09 08:12:52;;;;;;;10.52;8.95;;;;;;;18.68;73.01;94627.91;4167556;28;20059;-59
2022/07/09 08:14:55;;;;;;;13.82;11.60;;;;;;;18.67;74.77;94617.50;4175359;28;20103;-55
2022/07/09 08:16:56;;;;;;;8.20;7.38;;;;;;;18.65;73.87;94620.38;4161353;28;20144;-56
2022/07/09 08:18:58;;;;;;;6.85;6.05;;;;;;;18.76;74.52;94616.25;4171056;28;20132;-56
2022/07/09 08:21:00;;;;;;;4.40;3.70;;;;;;;19.03;73.17;94619.59;4163871;28;20072;-57
2022/07/09 08:23:03;;;;;;;4.43;3.70;;;;;;;18.50;73.74;94619.81;4167630;28;20429;-56
2022/07/09 08:25:05;;;;;;;5.73;3.70;;;;;;;18.86;74.77;94615.81;4169573;28;20049;-58
2022/07/09 08:27:13;;;;;;;3.78;3.35;;;;;;;19.15;73.40;94612.56;4160262;28;20111;-56
2022/07/09 08:29:14;;;;;;;4.68;3.63;;;;;;;19.37;72.35;94620.19;4161731;28;20479;-54
2022/07/09 08:31:17;;;;;;;7.55;3.55;;;;;;;19.60;71.62;94617.78;4169419;28;20483;-55
2022/07/09 08:33:19;;;;;;;5.82;3.80;;;;;;;19.32;71.30;94615.53;4174665;28;20416;-56
2022/07/09 08:35:20;;;;;;;7.88;3.13;;;;;;;19.16;70.08;94619.50;4174654;28;20056;-57
2022/07/09 08:37:22;;;;;;;4.07;3.67;;;;;;;18.85;72.35;94622.16;4162190;28;20076;-54
2022/07/09 08:39:24;;;;;;;4.25;3.60;;;;;;;18.90;73.52;94617.81;4172247;28;20068;-55
2022/07/09 08:41:26;;;;;;;3.90;3.53;;;;;;;18.73;72.58;94625.41;4164145;28;20057;-55
2022/07/09 08:43:28;;;;;;;5.57;4.07;;;;;;;18.63;73.60;94623.25;4167496;28;20065;-56
2022/07/09 08:45:30;;;;;;;6.78;3.60;;;;;;;18.58;73.51;94631.03;4157136;28;20104;-55
2022/07/09 08:47:32;;;;;;;5.82;5.22;;;;;;;18.59;73.93;94629.19;4171603;28;20056;-55
2022/07/09 08:49:34;;;;;;;5.72;4.70;;;;;;;18.70;74.23;94625.06;4173265;28;20087;-56
2022/07/09 08:51:39;;;;;;;5.90;3.85;;;;;;;18.91;73.80;94621.31;4175926;28;20262;-55
2022/07/09 08:53:42;;;;;;;6.82;5.47;;;;;;;19.00;72.71;94628.00;4175448;28;20520;-55
2022/07/09 08:55:45;;;;;;;6.72;4.40;;;;;;;19.16;72.25;94624.00;4166067;28;20053;-56
2022/07/09 08:57:46;;;;;;;4.93;3.70;;;;;;;19.30;71.90;94624.75;4166961;28;20045;-56
2022/07/09 08:59:48;;;;;;;5.57;4.30;;;;;;;19.43;71.40;94619.34;4162695;28;20050;-57
2022/07/09 09:01:50;;;;;;;6.57;4.20;;;;;;;19.60;71.31;94624.94;4172476;28;20057;-55
2022/07/09 09:03:52;;;;;;;5.65;4.13;;;;;;;19.58;70.53;94630.47;4161109;28;20335;-55
2022/07/09 09:06:04;;;;;;;4.25;3.60;;;;;;;19.65;70.44;94628.56;4167395;28;20133;-55
2022/07/09 09:08:20;;;;;;;5.22;4.07;;;;;;;19.60;70.37;94625.75;4170116;28;20504;-59
2022/07/09 09:10:22;;;;;;;6.28;4.88;;;;;;;19.36;71.03;94627.34;4173357;28;20106;-55
2022/07/09 09:12:28;;;;;;;7.87;4.43;;;;;;;19.41;71.46;94627.50;4162867;28;20481;-58
2022/07/09 09:14:30;;;;;;;6.18;4.18;;;;;;;19.50;70.79;94625.41;4175354;28;20168;-58
2022/07/09 09:16:42;;;;;;;6.15;5.07;;;;;;;19.24;72.02;94629.88;4175665;28;20333;-56
2022/07/09 09:18:45;;;;;;;5.05;4.10;;;;;;;18.94;73.02;94634.94;4159156;28;20057;-56
2022/07/09 09:20:47;;;;;;;7.70;5.43;;;;;;;18.85;75.32;94632.78;4161977;28;20224;-56
2022/07/09 09:22:53;;;;;;;6.90;4.47;;;;;;;18.49;76.50;94632.25;4168778;28;20046;-55
2022/07/09 09:24:55;;;;;;;9.70;6.70;;;;;;;18.58;77.87;94631.03;4158962;28;20053;-57
2022/07/09 09:27:01;;;;;;;9.13;5.55;;;;;;;18.74;78.26;94624.41;4169880;28;20508;-57
2022/07/09 09:29:03;;;;;;;7.45;5.43;;;;;;;18.82;76.63;94618.91;4160463;28;20057;-56
2022/07/09 09:31:20;;;;;;;7.03;4.90;;;;;;;18.14;78.13;94631.75;4170476;28;20106;-53
2022/07/09 09:33:22;;;;;;;10.80;6.63;;;;;;;18.26;79.56;94630.06;4173557;28;20056;-55
2022/07/09 09:35:29;;;;;;;12.65;9.25;;;;;;;18.35;79.24;94623.53;4163767;28;20061;-59
2022/07/09 09:37:30;;;;;;;13.57;9.73;;;;;;;18.53;79.11;94624.72;4158964;28;20111;-54
2022/07/09 09:39:32;;;;;;;14.90;7.53;;;;;;;18.46;79.33;94618.63;4171697;28;20532;-56